sensor_id;sensor_type;location;lat;lon;timestamp;pressure;altitude;pressure_sealevel;temperature;humidity
51849;BME280;38952;51.090;-1.832;2024-02-28T00:00:09;100705.41;;;7.85;100.00
51849;BME280;38952;51.090;-1.832;2024-02-28T00:02:36;100689.81;;;7.69;100.00
51849;BME280;38952;51.090;-1.832;2024-02-28T00:05:05;100725.53;;;7.84;100.00
51849;BME280;38952;51.090;-1.832;2024-02-28T00:07:31;100720.38;;;7.71;100.00
51849;BME280;38952;51.090;-1.832;2024-02-28T00:09:58;100720.16;;;7.61;100.00
51849;BME280;38952;51.090;-1.832;2024-02-28T00:12:23;100724.41;;;7.57;100.00
51849;BME280;38952;51.090;-1.832;2024-02-28T00:14:52;100719.94;;;7.50;100.00
51849;BME280;38952;51.090;-1.832;2024-02-28T00:17:19;100714.84;;;7.42;100.00
51849;BME280;38952;51.090;-1.832;2024-02-28T00:19:48;100728.91;;;7.63;100.00
51849;BME280;38952;51.090;-1.832;2024-02-28T00:22:13;100737.84;;;7.75;100.00
51849;BME280;38952;51.090;-1.832;2024-02-28T00:24:39;100712.78;;;7.73;100.00
51849;BME280;38952;51.090;-1.832;2024-02-28T00:27:04;100713.56;;;7.85;100.00
51849;BME280;38952;51.090;-1.832;2024-02-28T00:29:29;100730.72;;;7.98;100.00
51849;BME280;38952;51.090;-1.832;2024-02-28T00:31:55;100714.66;;;7.84;100.00
51849;BME280;38952;51.090;-1.832;2024-02-28T00:34:20;100743.84;;;8.01;100.00
51849;BME280;38952;51.090;-1.832;2024-02-28T00:36:46;100721.38;;;7.94;100.00
51849;BME280;38952;51.090;-1.832;2024-02-28T00:39:11;100710.16;;;7.90;100.00
51849;BME280;38952;51.090;-1.832;2024-02-28T00:41:37;100720.78;;;7.92;100.00
51849;BME280;38952;51.090;-1.832;2024-02-28T00:44:03;100697.97;;;7.81;100.00
51849;BME280;38952;51.090;-1.832;2024-02-28T00:46:28;100691.69;;;7.80;100.00
51849;BME280;38952;51.090;-1.832;2024-02-28T00:48:54;100708.56;;;7.94;100.00
51849;BME280;38952;51.090;-1.832;2024-02-28T00:51:19;100728.44;;;8.07;100.00
51849;BME280;38952;51.090;-1.832;2024-02-28T00:53:45;100706.44;;;7.96;100.00
51849;BME280;38952;51.090;-1.832;2024-02-28T00:56:28;100683.97;;;7.89;100.00
51849;BME280;38952;51.090;-1.832;2024-02-28T00:58:54;100693.56;;;7.92;100.00
51849;BME280;38952;51.090;-1.832;2024-02-28T01:01:19;100697.47;;;7.96;100.00
51849;BME280;38952;51.090;-1.832;2024-02-28T01:03:47;100696.03;;;7.93;100.00
51849;BME280;38952;51.090;-1.832;2024-02-28T01:06:12;100696.16;;;7.86;100.00
51849;BME280;38952;51.090;-1.832;2024-02-28T01:08:38;100688.16;;;7.80;100.00
51849;BME280;38952;51.090;-1.832;2024-02-28T01:11:05;100728.09;;;8.03;100.00
51849;BME280;38952;51.090;-1.832;2024-02-28T01:13:31;100733.88;;;8.07;100.00
51849;BME280;38952;51.090;-1.832;2024-02-28T01:15:56;100725.72;;;8.07;100.00
51849;BME280;38952;51.090;-1.832;2024-02-28T01:18:22;100694.06;;;7.89;100.00
51849;BME280;38952;51.090;-1.832;2024-02-28T01:20:47;100697.22;;;7.97;100.00
51849;BME280;38952;51.090;-1.832;2024-02-28T01:23:13;100696.38;;;7.97;100.00
51849;BME280;38952;51.090;-1.832;2024-02-28T01:25:38;100701.69;;;8.03;100.00
51849;BME280;38952;51.090;-1.832;2024-02-28T01:28:04;100717.63;;;8.24;100.00
51849;BME280;38952;51.090;-1.832;2024-02-28T01:30:29;100715.94;;;8.23;100.00
51849;BME280;38952;51.090;-1.832;2024-02-28T01:32:55;100723.25;;;8.34;100.00
51849;BME280;38952;51.090;-1.832;2024-02-28T01:35:20;100727.72;;;8.40;100.00
51849;BME280;38952;51.090;-1.832;2024-02-28T01:37:47;100728.94;;;8.44;100.00
51849;BME280;38952;51.090;-1.832;2024-02-28T01:40:13;100712.56;;;8.44;100.00
51849;BME280;38952;51.090;-1.832;2024-02-28T01:42:38;100698.81;;;8.39;100.00
51849;BME280;38952;51.090;-1.832;2024-02-28T01:45:14;100679.66;;;8.34;100.00
51849;BME280;38952;51.090;-1.832;2024-02-28T01:47:41;100685.78;;;8.41;100.00
51849;BME280;38952;51.090;-1.832;2024-02-28T01:50:09;100719.03;;;8.55;100.00
51849;BME280;38952;51.090;-1.832;2024-02-28T01:52:38;100726.94;;;8.56;100.00
51849;BME280;38952;51.090;-1.832;2024-02-28T01:55:05;100715.88;;;8.46;100.00
51849;BME280;38952;51.090;-1.832;2024-02-28T01:57:32;100711.38;;;8.40;100.00
51849;BME280;38952;51.090;-1.832;2024-02-28T01:59:58;100711.63;;;8.38;100.00
51849;BME280;38952;51.090;-1.832;2024-02-28T02:02:28;100700.38;;;8.35;100.00
51849;BME280;38952;51.090;-1.832;2024-02-28T02:04:58;100699.31;;;8.36;100.00
51849;BME280;38952;51.090;-1.832;2024-02-28T02:07:25;100691.69;;;8.38;100.00
51849;BME280;38952;51.090;-1.832;2024-02-28T02:09:51;100711.34;;;8.52;100.00
51849;BME280;38952;51.090;-1.832;2024-02-28T02:12:20;100708.69;;;8.57;100.00
51849;BME280;38952;51.090;-1.832;2024-02-28T02:14:50;100688.63;;;8.46;100.00
51849;BME280;38952;51.090;-1.832;2024-02-28T02:17:18;100685.31;;;8.44;100.00
51849;BME280;38952;51.090;-1.832;2024-02-28T02:19:44;100710.09;;;8.60;100.00
51849;BME280;38952;51.090;-1.832;2024-02-28T02:22:13;100720.75;;;8.61;100.00
51849;BME280;38952;51.090;-1.832;2024-02-28T02:24:38;100708.47;;;8.59;100.00
51849;BME280;38952;51.090;-1.832;2024-02-28T02:27:04;100721.69;;;8.67;100.00
51849;BME280;38952;51.090;-1.832;2024-02-28T02:29:30;100722.34;;;8.74;100.00
51849;BME280;38952;51.090;-1.832;2024-02-28T02:31:56;100698.69;;;8.63;100.00
51849;BME280;38952;51.090;-1.832;2024-02-28T02:34:21;100710.22;;;8.65;100.00
51849;BME280;38952;51.090;-1.832;2024-02-28T02:36:46;100719.81;;;8.67;100.00
51849;BME280;38952;51.090;-1.832;2024-02-28T02:39:12;100707.97;;;8.62;100.00
51849;BME280;38952;51.090;-1.832;2024-02-28T02:41:38;100706.22;;;8.55;100.00
51849;BME280;38952;51.090;-1.832;2024-02-28T02:44:03;100695.56;;;8.54;100.00
51849;BME280;38952;51.090;-1.832;2024-02-28T02:46:29;100718.03;;;8.61;100.00
51849;BME280;38952;51.090;-1.832;2024-02-28T02:48:55;100718.88;;;8.62;100.00
51849;BME280;38952;51.090;-1.832;2024-02-28T02:51:20;100714.56;;;8.66;100.00
51849;BME280;38952;51.090;-1.832;2024-02-28T02:53:49;100713.75;;;8.65;100.00
51849;BME280;38952;51.090;-1.832;2024-02-28T02:56:14;100703.09;;;8.64;100.00
51849;BME280;38952;51.090;-1.832;2024-02-28T02:58:47;100687.06;;;8.50;100.00
51849;BME280;38952;51.090;-1.832;2024-02-28T03:01:12;100717.41;;;8.71;100.00
51849;BME280;38952;51.090;-1.832;2024-02-28T03:03:38;100731.13;;;8.76;100.00
51849;BME280;38952;51.090;-1.832;2024-02-28T03:06:04;100723.50;;;8.78;100.00
51849;BME280;38952;51.090;-1.832;2024-02-28T03:08:30;100722.44;;;8.79;100.00
51849;BME280;38952;51.090;-1.832;2024-02-28T03:10:56;100724.59;;;8.77;100.00
51849;BME280;38952;51.090;-1.832;2024-02-28T03:13:21;100721.69;;;8.67;100.00
51849;BME280;38952;51.090;-1.832;2024-02-28T03:15:48;100708.47;;;8.59;100.00
51849;BME280;38952;51.090;-1.832;2024-02-28T03:18:13;100693.56;;;8.49;100.00
51849;BME280;38952;51.090;-1.832;2024-02-28T03:20:39;100716.47;;;8.65;100.00
51849;BME280;38952;51.090;-1.832;2024-02-28T03:23:05;100677.16;;;8.44;100.00
51849;BME280;38952;51.090;-1.832;2024-02-28T03:25:32;100694.84;;;8.59;100.00
51849;BME280;38952;51.090;-1.832;2024-02-28T03:27:58;100718.31;;;8.77;100.00
51849;BME280;38952;51.090;-1.832;2024-02-28T03:30:23;100717.00;;;8.79;100.00
51849;BME280;38952;51.090;-1.832;2024-02-28T03:32:49;100699.97;;;8.72;100.00
51849;BME280;38952;51.090;-1.832;2024-02-28T03:35:14;100690.13;;;8.71;100.00
51849;BME280;38952;51.090;-1.832;2024-02-28T03:37:40;100710.94;;;8.77;100.00
51849;BME280;38952;51.090;-1.832;2024-02-28T03:40:06;100695.25;;;8.67;100.00
51849;BME280;38952;51.090;-1.832;2024-02-28T03:42:31;100708.16;;;8.72;100.00
51849;BME280;38952;51.090;-1.832;2024-02-28T03:44:57;100708.41;;;8.70;100.00
51849;BME280;38952;51.090;-1.832;2024-02-28T03:47:22;100693.25;;;8.63;100.00
51849;BME280;38952;51.090;-1.832;2024-02-28T03:49:49;100704.31;;;8.73;100.00
51849;BME280;38952;51.090;-1.832;2024-02-28T03:52:14;100710.28;;;8.70;100.00
51849;BME280;38952;51.090;-1.832;2024-02-28T03:54:42;100703.50;;;8.72;100.00
51849;BME280;38952;51.090;-1.832;2024-02-28T03:57:08;100700.38;;;8.64;100.00
51849;BME280;38952;51.090;-1.832;2024-02-28T03:59:34;100686.00;;;8.51;100.00
51849;BME280;38952;51.090;-1.832;2024-02-28T04:02:07;100703.34;;;8.62;100.00
51849;BME280;38952;51.090;-1.832;2024-02-28T04:04:35;100679.88;;;8.44;100.00
51849;BME280;38952;51.090;-1.832;2024-02-28T04:07:00;100715.06;;;8.63;100.00
51849;BME280;38952;51.090;-1.832;2024-02-28T04:09:28;100668.59;;;8.41;100.00
51849;BME280;38952;51.090;-1.832;2024-02-28T04:11:54;100694.34;;;8.62;100.00
51849;BME280;38952;51.090;-1.832;2024-02-28T04:14:19;100683.34;;;8.56;100.00
51849;BME280;38952;51.090;-1.832;2024-02-28T04:16:45;100694.59;;;8.60;100.00
51849;BME280;38952;51.090;-1.832;2024-02-28T04:19:11;100702.03;;;8.65;100.00
51849;BME280;38952;51.090;-1.832;2024-02-28T04:21:39;100693.75;;;8.60;100.00
51849;BME280;38952;51.090;-1.832;2024-02-28T04:24:06;100688.13;;;8.49;100.00
51849;BME280;38952;51.090;-1.832;2024-02-28T04:26:31;100697.25;;;8.43;100.00
51849;BME280;38952;51.090;-1.832;2024-02-28T04:29:00;100674.06;;;8.12;100.00
51849;BME280;38952;51.090;-1.832;2024-02-28T04:31:30;100664.09;;;7.89;100.00
51849;BME280;38952;51.090;-1.832;2024-02-28T04:33:55;100674.19;;;7.76;100.00
51849;BME280;38952;51.090;-1.832;2024-02-28T04:36:21;100678.25;;;7.62;100.00
51849;BME280;38952;51.090;-1.832;2024-02-28T04:38:46;100674.72;;;7.49;100.00
51849;BME280;38952;51.090;-1.832;2024-02-28T04:41:12;100672.59;;;7.40;100.00
51849;BME280;38952;51.090;-1.832;2024-02-28T04:43:37;100661.75;;;7.28;100.00
51849;BME280;38952;51.090;-1.832;2024-02-28T04:46:08;100648.63;;;7.13;100.00
51849;BME280;38952;51.090;-1.832;2024-02-28T04:48:35;100663.53;;;7.22;100.00
51849;BME280;38952;51.090;-1.832;2024-02-28T04:51:01;100649.94;;;7.10;100.00
51849;BME280;38952;51.090;-1.832;2024-02-28T04:53:27;100669.91;;;7.16;100.00
51849;BME280;38952;51.090;-1.832;2024-02-28T04:55:53;100676.06;;;7.11;100.00
51849;BME280;38952;51.090;-1.832;2024-02-28T04:58:19;100665.19;;;6.99;100.00
51849;BME280;38952;51.090;-1.832;2024-02-28T05:00:44;100653.00;;;6.90;100.00
51849;BME280;38952;51.090;-1.832;2024-02-28T05:03:09;100659.88;;;6.93;100.00
51849;BME280;38952;51.090;-1.832;2024-02-28T05:05:35;100664.47;;;6.92;100.00
51849;BME280;38952;51.090;-1.832;2024-02-28T05:08:01;100639.53;;;6.84;100.00
51849;BME280;38952;51.090;-1.832;2024-02-28T05:10:26;100645.44;;;6.80;100.00
51849;BME280;38952;51.090;-1.832;2024-02-28T05:12:51;100642.72;;;6.80;100.00
51849;BME280;38952;51.090;-1.832;2024-02-28T05:15:17;100653.38;;;6.82;100.00
51849;BME280;38952;51.090;-1.832;2024-02-28T05:17:42;100652.03;;;6.85;100.00
51849;BME280;38952;51.090;-1.832;2024-02-28T05:20:08;100652.03;;;6.85;100.00
51849;BME280;38952;51.090;-1.832;2024-02-28T05:22:34;100643.06;;;6.84;100.00
51849;BME280;38952;51.090;-1.832;2024-02-28T05:25:00;100613.75;;;6.74;100.00
51849;BME280;38952;51.090;-1.832;2024-02-28T05:27:25;100620.50;;;6.72;100.00
51849;BME280;38952;51.090;-1.832;2024-02-28T05:29:51;100636.69;;;6.78;100.00
51849;BME280;38952;51.090;-1.832;2024-02-28T05:32:16;100636.69;;;6.78;100.00
51849;BME280;38952;51.090;-1.832;2024-02-28T05:34:49;100616.84;;;6.66;100.00
51849;BME280;38952;51.090;-1.832;2024-02-28T05:37:16;100627.59;;;6.73;100.00
51849;BME280;38952;51.090;-1.832;2024-02-28T05:39:42;100623.56;;;6.75;100.00
51849;BME280;38952;51.090;-1.832;2024-02-28T05:42:10;100621.91;;;6.74;100.00
51849;BME280;38952;51.090;-1.832;2024-02-28T05:44:35;100624.63;;;6.74;100.00
51849;BME280;38952;51.090;-1.832;2024-02-28T05:47:01;100626.28;;;6.75;100.00
51849;BME280;38952;51.090;-1.832;2024-02-28T05:49:26;100626.28;;;6.75;100.00
51849;BME280;38952;51.090;-1.832;2024-02-28T05:51:52;100631.72;;;6.75;100.00
51849;BME280;38952;51.090;-1.832;2024-02-28T05:54:19;100620.59;;;6.65;100.00
51849;BME280;38952;51.090;-1.832;2024-02-28T05:56:44;100607.81;;;6.42;100.00
51849;BME280;38952;51.090;-1.832;2024-02-28T05:59:10;100625.91;;;6.48;100.00
51849;BME280;38952;51.090;-1.832;2024-02-28T06:01:37;100643.53;;;6.57;100.00
51849;BME280;38952;51.090;-1.832;2024-02-28T06:04:05;100607.81;;;6.30;100.00
51849;BME280;38952;51.090;-1.832;2024-02-28T06:06:30;100620.22;;;6.38;100.00
51849;BME280;38952;51.090;-1.832;2024-02-28T06:08:56;100617.25;;;6.39;100.00
51849;BME280;38952;51.090;-1.832;2024-02-28T06:11:21;100609.47;;;6.31;100.00
51849;BME280;38952;51.090;-1.832;2024-02-28T06:13:47;100627.41;;;6.32;100.00
51849;BME280;38952;51.090;-1.832;2024-02-28T06:16:15;100627.16;;;6.34;100.00
51849;BME280;38952;51.090;-1.832;2024-02-28T06:18:43;100628.00;;;6.34;100.00
51849;BME280;38952;51.090;-1.832;2024-02-28T06:21:13;100607.66;;;6.25;100.00
51849;BME280;38952;51.090;-1.832;2024-02-28T06:23:38;100607.81;;;6.30;100.00
51849;BME280;38952;51.090;-1.832;2024-02-28T06:26:07;100601.19;;;6.26;100.00
51849;BME280;38952;51.090;-1.832;2024-02-28T06:28:57;100598.94;;;6.23;100.00
51849;BME280;38952;51.090;-1.832;2024-02-28T06:31:27;100625.41;;;6.39;100.00
51849;BME280;38952;51.090;-1.832;2024-02-28T06:33:57;100626.50;;;6.38;100.00
51849;BME280;38952;51.090;-1.832;2024-02-28T06:36:23;100610.66;;;6.35;100.00
51849;BME280;38952;51.090;-1.832;2024-02-28T06:38:50;100612.28;;;6.36;100.00
51849;BME280;38952;51.090;-1.832;2024-02-28T06:41:16;100604.84;;;6.32;100.00
51849;BME280;38952;51.090;-1.832;2024-02-28T06:43:46;100611.09;;;6.32;100.00
51849;BME280;38952;51.090;-1.832;2024-02-28T06:46:14;100607.56;;;6.20;100.00
51849;BME280;38952;51.090;-1.832;2024-02-28T06:48:40;100619.59;;;6.24;100.00
51849;BME280;38952;51.090;-1.832;2024-02-28T06:51:05;100598.09;;;6.10;100.00
51849;BME280;38952;51.090;-1.832;2024-02-28T06:53:31;100600.91;;;6.16;100.00
51849;BME280;38952;51.090;-1.832;2024-02-28T06:55:56;100603.63;;;6.16;100.00
51849;BME280;38952;51.090;-1.832;2024-02-28T06:58:22;100601.38;;;6.13;100.00
51849;BME280;38952;51.090;-1.832;2024-02-28T07:00:57;100593.31;;;6.06;100.00
51849;BME280;38952;51.090;-1.832;2024-02-28T07:03:22;100622.19;;;6.19;100.00
51849;BME280;38952;51.090;-1.832;2024-02-28T07:05:48;100623.38;;;6.23;100.00
51849;BME280;38952;51.090;-1.832;2024-02-28T07:08:13;100617.34;;;6.21;100.00
51849;BME280;38952;51.090;-1.832;2024-02-28T07:10:39;100604.25;;;6.18;100.00
51849;BME280;38952;51.090;-1.832;2024-02-28T07:13:08;100629.44;;;6.37;100.00
51849;BME280;38952;51.090;-1.832;2024-02-28T07:15:34;100615.25;;;6.35;100.00
51849;BME280;38952;51.090;-1.832;2024-02-28T07:17:59;100618.09;;;6.40;100.00
51849;BME280;38952;51.090;-1.832;2024-02-28T07:20:25;100635.16;;;6.59;100.00
51849;BME280;38952;51.090;-1.832;2024-02-28T07:22:50;100616.22;;;6.52;100.00
51849;BME280;38952;51.090;-1.832;2024-02-28T07:25:15;100617.19;;;6.70;100.00
51849;BME280;38952;51.090;-1.832;2024-02-28T07:27:46;100586.09;;;6.54;100.00
51849;BME280;38952;51.090;-1.832;2024-02-28T07:30:17;100594.38;;;6.59;100.00
51849;BME280;38952;51.090;-1.832;2024-02-28T07:32:43;100607.50;;;6.74;100.00
51849;BME280;38952;51.090;-1.832;2024-02-28T07:35:08;100582.09;;;6.68;100.00
51849;BME280;38952;51.090;-1.832;2024-02-28T07:37:34;100591.09;;;6.80;100.00
51849;BME280;38952;51.090;-1.832;2024-02-28T07:40:04;100606.69;;;6.97;100.00
51849;BME280;38952;51.090;-1.832;2024-02-28T07:42:32;100614.56;;;7.10;100.00
51849;BME280;38952;51.090;-1.832;2024-02-28T07:44:58;100608.91;;;7.12;100.00
51849;BME280;38952;51.090;-1.832;2024-02-28T07:47:24;100614.31;;;7.24;100.00
51849;BME280;38952;51.090;-1.832;2024-02-28T07:49:53;100620.66;;;7.41;100.00
51849;BME280;38952;51.090;-1.832;2024-02-28T07:52:26;100622.63;;;7.58;100.00
51849;BME280;38952;51.090;-1.832;2024-02-28T07:54:52;100645.97;;;7.82;100.00
51849;BME280;38952;51.090;-1.832;2024-02-28T07:57:17;100642.66;;;7.92;100.00
51849;BME280;38952;51.090;-1.832;2024-02-28T07:59:43;100637.16;;;8.04;100.00
51849;BME280;38952;51.090;-1.832;2024-02-28T08:02:09;100648.22;;;8.14;100.00
51849;BME280;38952;51.090;-1.832;2024-02-28T08:04:37;100646.09;;;8.16;100.00
51849;BME280;38952;51.090;-1.832;2024-02-28T08:07:05;100659.31;;;8.25;100.00
51849;BME280;38952;51.090;-1.832;2024-02-28T08:09:33;100647.25;;;8.20;100.00
51849;BME280;38952;51.090;-1.832;2024-02-28T08:11:58;100632.06;;;8.25;100.00
51849;BME280;38952;51.090;-1.832;2024-02-28T08:14:26;100646.47;;;8.37;100.00
51849;BME280;38952;51.090;-1.832;2024-02-28T08:16:52;100674.91;;;8.58;100.00
51849;BME280;38952;51.090;-1.832;2024-02-28T08:19:21;100667.09;;;8.62;100.00
51849;BME280;38952;51.090;-1.832;2024-02-28T08:21:47;100653.72;;;8.60;100.00
51849;BME280;38952;51.090;-1.832;2024-02-28T08:24:12;100670.63;;;8.79;100.00
51849;BME280;38952;51.090;-1.832;2024-02-28T08:26:38;100662.88;;;8.71;100.00
51849;BME280;38952;51.090;-1.832;2024-02-28T08:29:06;100658.06;;;8.61;100.00
51849;BME280;38952;51.090;-1.832;2024-02-28T08:31:31;100653.47;;;8.62;100.00
51849;BME280;38952;51.090;-1.832;2024-02-28T08:33:57;100638.56;;;8.52;100.00
51849;BME280;38952;51.090;-1.832;2024-02-28T08:36:22;100660.03;;;8.66;100.00
51849;BME280;38952;51.090;-1.832;2024-02-28T08:38:48;100648.97;;;8.55;100.00
51849;BME280;38952;51.090;-1.832;2024-02-28T08:41:13;100638.56;;;8.52;100.00
51849;BME280;38952;51.090;-1.832;2024-02-28T08:43:39;100651.78;;;8.61;100.00
51849;BME280;38952;51.090;-1.832;2024-02-28T08:46:05;100647.91;;;8.56;100.00
51849;BME280;38952;51.090;-1.832;2024-02-28T08:48:32;100684.94;;;8.86;100.00
51849;BME280;38952;51.090;-1.832;2024-02-28T08:51:11;100663.19;;;8.91;100.00
51849;BME280;38952;51.090;-1.832;2024-02-28T08:53:36;100679.84;;;9.12;100.00
51849;BME280;38952;51.090;-1.832;2024-02-28T08:56:02;100668.78;;;9.02;100.00
51849;BME280;38952;51.090;-1.832;2024-02-28T08:58:37;100684.66;;;9.05;100.00
51849;BME280;38952;51.090;-1.832;2024-02-28T09:01:03;100666.00;;;8.97;100.00
51849;BME280;38952;51.090;-1.832;2024-02-28T09:03:32;100682.53;;;9.07;100.00
51849;BME280;38952;51.090;-1.832;2024-02-28T09:06:00;100671.78;;;9.00;100.00
51849;BME280;38952;51.090;-1.832;2024-02-28T09:08:26;100660.63;;;9.02;100.00
51849;BME280;38952;51.090;-1.832;2024-02-28T09:10:52;100669.44;;;9.09;100.00
51849;BME280;38952;51.090;-1.832;2024-02-28T09:13:20;100670.09;;;9.16;100.00
51849;BME280;38952;51.090;-1.832;2024-02-28T09:15:45;100698.19;;;9.34;100.00
51849;BME280;38952;51.090;-1.832;2024-02-28T09:18:28;100674.00;;;9.20;100.00
51849;BME280;38952;51.090;-1.832;2024-02-28T09:20:54;100675.19;;;9.30;100.00
51849;BME280;38952;51.090;-1.832;2024-02-28T09:23:23;100655.59;;;9.33;100.00
51849;BME280;38952;51.090;-1.832;2024-02-28T09:25:48;100680.56;;;9.64;100.00
51849;BME280;38952;51.090;-1.832;2024-02-28T09:28:16;100669.16;;;9.67;100.00
51849;BME280;38952;51.090;-1.832;2024-02-28T09:30:42;100653.75;;;9.60;100.00
51849;BME280;38952;51.090;-1.832;2024-02-28T09:33:08;100647.75;;;9.58;100.00
51849;BME280;38952;51.090;-1.832;2024-02-28T09:35:37;100656.56;;;9.66;99.29
51849;BME280;38952;51.090;-1.832;2024-02-28T09:38:10;100660.97;;;9.67;99.51
51849;BME280;38952;51.090;-1.832;2024-02-28T09:40:36;100668.66;;;9.70;98.47
51849;BME280;38952;51.090;-1.832;2024-02-28T09:43:02;100671.13;;;9.71;98.76
51849;BME280;38952;51.090;-1.832;2024-02-28T09:45:37;100658.03;;;9.73;98.39
51849;BME280;38952;51.090;-1.832;2024-02-28T09:48:10;100657.44;;;9.93;97.90
51849;BME280;38952;51.090;-1.832;2024-02-28T09:50:36;100664.69;;;10.05;97.54
51849;BME280;38952;51.090;-1.832;2024-02-28T09:53:04;100657.16;;;10.17;97.08
51849;BME280;38952;51.090;-1.832;2024-02-28T09:55:32;100640.31;;;10.30;96.94
51849;BME280;38952;51.090;-1.832;2024-02-28T09:57:57;100657.13;;;10.72;96.72
51849;BME280;38952;51.090;-1.832;2024-02-28T10:00:23;100645.22;;;10.88;94.74
51849;BME280;38952;51.090;-1.832;2024-02-28T10:02:50;100633.28;;;11.05;94.22
51849;BME280;38952;51.090;-1.832;2024-02-28T10:05:17;100620.75;;;11.14;93.04
51849;BME280;38952;51.090;-1.832;2024-02-28T10:07:46;100639.88;;;11.57;92.90
51849;BME280;38952;51.090;-1.832;2024-02-28T10:10:12;100632.78;;;11.66;91.90
51849;BME280;38952;51.090;-1.832;2024-02-28T10:12:44;100632.00;;;11.76;91.75
51849;BME280;38952;51.090;-1.832;2024-02-28T10:15:10;100596.34;;;11.70;90.73
51849;BME280;38952;51.090;-1.832;2024-02-28T10:17:36;100623.28;;;11.94;90.51
51849;BME280;38952;51.090;-1.832;2024-02-28T10:20:01;100624.41;;;11.98;89.52
51849;BME280;38952;51.090;-1.832;2024-02-28T10:22:34;100633.13;;;11.90;89.09
51849;BME280;38952;51.090;-1.832;2024-02-28T10:25:00;100614.47;;;11.82;89.54
51849;BME280;38952;51.090;-1.832;2024-02-28T10:27:25;100596.94;;;11.88;89.68
51849;BME280;38952;51.090;-1.832;2024-02-28T10:29:51;100611.22;;;11.90;87.81
51849;BME280;38952;51.090;-1.832;2024-02-28T10:32:19;100599.66;;;11.73;88.29
51849;BME280;38952;51.090;-1.832;2024-02-28T10:34:45;100612.78;;;11.65;88.13
51849;BME280;38952;51.090;-1.832;2024-02-28T10:37:14;100629.22;;;11.70;88.28
51849;BME280;38952;51.090;-1.832;2024-02-28T10:39:51;100590.50;;;11.36;89.38
51849;BME280;38952;51.090;-1.832;2024-02-28T10:42:18;100615.44;;;11.45;89.30
51849;BME280;38952;51.090;-1.832;2024-02-28T10:44:48;100626.00;;;11.21;89.04
51849;BME280;38952;51.090;-1.832;2024-02-28T10:47:17;100628.94;;;11.09;90.98
51849;BME280;38952;51.090;-1.832;2024-02-28T10:49:48;100632.75;;;11.08;92.04
51849;BME280;38952;51.090;-1.832;2024-02-28T10:52:19;100602.78;;;10.86;92.59
51849;BME280;38952;51.090;-1.832;2024-02-28T10:54:55;100583.31;;;10.77;93.04
51849;BME280;38952;51.090;-1.832;2024-02-28T10:57:30;100615.75;;;11.00;93.42
51849;BME280;38952;51.090;-1.832;2024-02-28T10:59:59;100574.78;;;10.68;94.04
51849;BME280;38952;51.090;-1.832;2024-02-28T11:02:25;100602.78;;;10.86;94.18
51849;BME280;38952;51.090;-1.832;2024-02-28T11:04:52;100613.47;;;10.87;94.41
51849;BME280;38952;51.090;-1.832;2024-02-28T11:07:22;100595.91;;;10.78;95.30
51849;BME280;38952;51.090;-1.832;2024-02-28T11:09:47;100580.09;;;10.85;95.47
51849;BME280;38952;51.090;-1.832;2024-02-28T11:12:24;100605.63;;;11.01;95.12
51849;BME280;38952;51.090;-1.832;2024-02-28T11:15:01;100597.06;;;10.87;95.07
51849;BME280;38952;51.090;-1.832;2024-02-28T11:17:29;100612.59;;;10.81;95.72
51849;BME280;38952;51.090;-1.832;2024-02-28T11:19:55;100595.97;;;10.51;95.99
51849;BME280;38952;51.090;-1.832;2024-02-28T11:22:20;100621.91;;;10.48;97.65
51849;BME280;38952;51.090;-1.832;2024-02-28T11:24:47;100582.44;;;10.34;99.33
51849;BME280;38952;51.090;-1.832;2024-02-28T11:27:22;100578.47;;;10.19;99.75
51849;BME280;38952;51.090;-1.832;2024-02-28T11:29:55;100579.03;;;10.21;100.00
51849;BME280;38952;51.090;-1.832;2024-02-28T11:32:24;100586.16;;;10.22;100.00
51849;BME280;38952;51.090;-1.832;2024-02-28T11:35:03;100571.19;;;10.03;100.00
51849;BME280;38952;51.090;-1.832;2024-02-28T11:37:28;100594.53;;;9.88;100.00
51849;BME280;38952;51.090;-1.832;2024-02-28T11:39:54;100580.41;;;9.69;100.00
51849;BME280;38952;51.090;-1.832;2024-02-28T11:42:19;100585.25;;;9.62;100.00
51849;BME280;38952;51.090;-1.832;2024-02-28T11:44:53;100572.00;;;9.49;100.00
51849;BME280;38952;51.090;-1.832;2024-02-28T11:47:19;100580.00;;;9.55;100.00
51849;BME280;38952;51.090;-1.832;2024-02-28T11:49:44;100567.50;;;9.59;100.00
51849;BME280;38952;51.090;-1.832;2024-02-28T11:52:10;100573.59;;;9.67;100.00
51849;BME280;38952;51.090;-1.832;2024-02-28T11:54:37;100570.28;;;9.65;100.00
51849;BME280;38952;51.090;-1.832;2024-02-28T11:57:02;100547.13;;;9.45;100.00
51849;BME280;38952;51.090;-1.832;2024-02-28T11:59:29;100547.06;;;9.40;100.00
51849;BME280;38952;51.090;-1.832;2024-02-28T12:01:57;100556.09;;;9.40;100.00
51849;BME280;38952;51.090;-1.832;2024-02-28T12:04:24;100559.06;;;9.39;100.00
51849;BME280;38952;51.090;-1.832;2024-02-28T12:06:50;100535.66;;;9.21;100.00
51849;BME280;38952;51.090;-1.832;2024-02-28T12:09:17;100532.16;;;9.25;100.00
51849;BME280;38952;51.090;-1.832;2024-02-28T12:11:43;100528.97;;;9.34;100.00
51849;BME280;38952;51.090;-1.832;2024-02-28T12:14:09;100531.97;;;9.32;100.00
51849;BME280;38952;51.090;-1.832;2024-02-28T12:16:39;100527.31;;;9.33;100.00
51849;BME280;38952;51.090;-1.832;2024-02-28T12:19:14;100526.81;;;9.36;100.00
51849;BME280;38952;51.090;-1.832;2024-02-28T12:21:44;100518.19;;;9.44;100.00
51849;BME280;38952;51.090;-1.832;2024-02-28T12:24:10;100515.00;;;9.52;100.00
51849;BME280;38952;51.090;-1.832;2024-02-28T12:26:38;100508.91;;;9.45;100.00
51849;BME280;38952;51.090;-1.832;2024-02-28T12:29:04;100513.59;;;9.50;100.00
51849;BME280;38952;51.090;-1.832;2024-02-28T12:31:30;100499.59;;;9.41;100.00
51849;BME280;38952;51.090;-1.832;2024-02-28T12:33:55;100499.63;;;9.46;100.00
51849;BME280;38952;51.090;-1.832;2024-02-28T12:36:28;100495.19;;;9.40;100.00
51849;BME280;38952;51.090;-1.832;2024-02-28T12:38:54;100501.69;;;9.34;100.00